createdAt,value
2022-11-15T00:01:16.354Z,25.00
2022-11-15T00:03:43.914Z,25.10
2022-11-15T00:06:11.436Z,25.10
2022-11-15T00:08:38.942Z,25.10
2022-11-15T00:11:06.564Z,25.10
2022-11-15T00:13:34.636Z,25.20
2022-11-15T00:16:04.321Z,25.20
2022-11-15T00:18:32.204Z,25.20
2022-11-15T00:21:04.884Z,25.30
2022-11-15T00:23:33.093Z,25.30
2022-11-15T00:26:00.976Z,25.40
2022-11-15T00:28:28.566Z,25.40
2022-11-15T00:31:01.411Z,25.40
2022-11-15T00:33:30.054Z,25.50
2022-11-15T00:36:02.797Z,25.60
2022-11-15T00:38:34.680Z,25.60
2022-11-15T00:41:07.739Z,25.70
2022-11-15T00:43:37.020Z,25.80
2022-11-15T00:46:07.308Z,25.80
2022-11-15T00:48:34.987Z,25.90
2022-11-15T00:51:03.314Z,25.90
2022-11-15T00:53:31.303Z,26.00
2022-11-15T00:56:00.107Z,26.00
2022-11-15T00:58:28.532Z,26.10
2022-11-15T01:00:57.270Z,26.10
2022-11-15T01:03:25.014Z,26.20
2022-11-15T01:05:52.531Z,26.30
2022-11-15T01:08:20.411Z,26.30
2022-11-15T01:10:47.917Z,26.40
2022-11-15T01:13:16.456Z,26.50
2022-11-15T01:15:43.972Z,26.50
2022-11-15T01:18:11.670Z,26.50
2022-11-15T01:20:44.074Z,26.60
2022-11-15T01:23:12.050Z,26.70
2022-11-15T01:25:40.708Z,26.70
2022-11-15T01:28:08.609Z,26.70
2022-11-15T01:30:38.122Z,26.80
2022-11-15T01:33:06.247Z,26.90
2022-11-15T01:35:34.676Z,26.90
2022-11-15T01:41:35.516Z,26.90
2022-11-15T01:44:22.005Z,27.00
2022-11-15T01:46:50.940Z,27.00
2022-11-15T01:49:21.164Z,27.10
2022-11-15T01:51:50.434Z,27.10
2022-11-15T01:54:20.693Z,27.20
2022-11-15T01:56:51.577Z,27.30
2022-11-15T01:59:22.524Z,27.30
2022-11-15T02:01:50.416Z,27.40
2022-11-15T02:04:21.588Z,27.40
2022-11-15T02:06:49.933Z,27.50
2022-11-15T02:09:27.835Z,27.50
2022-11-15T02:11:56.993Z,27.50
2022-11-15T02:14:45.028Z,27.60
2022-11-15T02:17:19.044Z,27.60
2022-11-15T02:20:16.715Z,27.70
2022-11-15T02:22:56.936Z,27.70
2022-11-15T02:25:27.745Z,27.80
2022-11-15T02:28:05.886Z,27.90
2022-11-15T02:30:38.010Z,28.00
2022-11-15T02:33:11.814Z,28.00
2022-11-15T02:36:05.213Z,28.10
2022-11-15T02:38:46.208Z,28.10
2022-11-15T02:41:38.900Z,28.10
2022-11-15T02:44:16.150Z,28.20
2022-11-15T02:47:06.813Z,28.20
2022-11-15T02:49:36.980Z,28.30
2022-11-15T02:52:05.056Z,28.40
2022-11-15T02:54:34.049Z,28.40
2022-11-15T02:57:13.731Z,28.50
2022-11-15T03:02:53.269Z,28.50
2022-11-15T03:05:46.676Z,28.60
2022-11-15T03:08:18.824Z,28.70
2022-11-15T03:11:13.514Z,28.80
2022-11-15T03:13:42.920Z,28.80
2022-11-15T03:16:29.212Z,28.90
2022-11-15T03:19:09.030Z,28.90
2022-11-15T03:21:38.393Z,29.00
2022-11-15T03:24:07.266Z,29.00
2022-11-15T03:26:38.986Z,29.00
2022-11-15T03:29:09.710Z,29.10
2022-11-15T03:31:50.763Z,29.10
2022-11-15T03:34:35.439Z,29.10
2022-11-15T03:37:04.189Z,29.10
2022-11-15T03:39:32.267Z,29.20
2022-11-15T03:42:06.414Z,29.20
2022-11-15T03:51:25.777Z,29.50
2022-11-15T03:53:54.073Z,29.50
2022-11-15T03:56:21.928Z,29.40
2022-11-15T03:58:49.954Z,29.50
2022-11-15T04:01:18.000Z,29.50
2022-11-15T04:03:46.466Z,29.50
2022-11-15T04:06:15.412Z,29.50
2022-11-15T04:08:43.688Z,29.60
2022-11-15T04:14:39.665Z,29.70
2022-11-15T04:17:08.568Z,29.70
2022-11-15T04:19:54.997Z,29.70
2022-11-15T04:22:41.996Z,29.70
2022-11-15T04:25:12.277Z,29.70
2022-11-15T04:27:40.808Z,29.80
2022-11-15T04:30:09.456Z,29.90
2022-11-15T04:32:40.543Z,30.00
2022-11-15T04:35:37.219Z,30.00
2022-11-15T04:42:02.372Z,30.30
2022-11-15T04:44:36.187Z,30.30
2022-11-15T04:47:04.347Z,30.40
2022-11-15T04:53:12.014Z,30.40
2022-11-15T04:55:53.218Z,30.40
2022-11-15T04:58:22.956Z,30.40
2022-11-15T05:00:53.567Z,30.50
2022-11-15T05:03:43.988Z,30.50
2022-11-15T05:06:12.190Z,30.50
2022-11-15T05:08:39.751Z,30.50
2022-11-15T05:11:07.406Z,30.50
2022-11-15T05:13:35.345Z,30.50
2022-11-15T05:16:02.914Z,30.50
2022-11-15T05:18:31.306Z,30.50
2022-11-15T05:21:05.295Z,30.50
2022-11-15T05:23:34.899Z,30.50
2022-11-15T05:26:09.345Z,30.60
2022-11-15T05:28:37.731Z,30.60
2022-11-15T05:31:07.217Z,30.60
2022-11-15T05:33:35.874Z,30.70
2022-11-15T05:36:10.318Z,30.80
2022-11-15T05:38:44.545Z,30.90
2022-11-15T05:41:13.209Z,30.90
2022-11-15T05:43:42.527Z,31.00
2022-11-15T05:46:32.928Z,31.00
2022-11-15T05:49:09.824Z,31.00
2022-11-15T05:51:43.851Z,31.10
2022-11-15T05:54:12.724Z,31.00
2022-11-15T05:56:40.706Z,31.00
2022-11-15T05:59:09.168Z,31.00
2022-11-15T06:01:37.252Z,31.00
2022-11-15T06:04:04.930Z,31.00
2022-11-15T06:06:32.766Z,31.00
2022-11-15T06:09:01.268Z,30.90
2022-11-15T06:11:29.463Z,30.90
2022-11-15T06:13:58.300Z,30.90
2022-11-15T06:16:26.646Z,30.90
2022-11-15T06:18:54.245Z,30.90
2022-11-15T06:21:24.024Z,30.80
2022-11-15T06:23:51.852Z,30.80
2022-11-15T06:26:19.409Z,30.90
2022-11-15T06:28:46.985Z,30.90
2022-11-15T06:31:16.463Z,30.90
2022-11-15T06:33:48.357Z,30.90
2022-11-15T06:36:18.015Z,31.00
2022-11-15T06:38:50.731Z,31.00
2022-11-15T06:41:19.158Z,31.10
2022-11-15T06:43:47.503Z,31.20
2022-11-15T06:46:16.564Z,31.20
2022-11-15T06:48:45.161Z,31.30
2022-11-15T06:51:13.048Z,31.30
2022-11-15T06:53:41.483Z,31.30
2022-11-15T06:56:09.451Z,31.40
2022-11-15T06:58:37.259Z,31.40
2022-11-15T07:01:09.405Z,31.50
2022-11-15T07:03:38.013Z,31.50
2022-11-15T07:06:07.470Z,31.60
2022-11-15T07:08:36.093Z,31.60
2022-11-15T07:11:06.752Z,31.60
2022-11-15T07:13:36.834Z,31.60
2022-11-15T07:16:09.069Z,31.60
2022-11-15T07:18:45.014Z,31.50
2022-11-15T07:21:15.142Z,31.50
2022-11-15T07:23:42.794Z,31.40
2022-11-15T07:26:10.731Z,31.30
2022-11-15T07:28:38.552Z,31.30
2022-11-15T07:31:13.076Z,31.30
2022-11-15T07:33:45.147Z,31.20
2022-11-15T07:36:12.793Z,31.30
2022-11-15T07:38:43.061Z,31.30
2022-11-15T07:41:15.152Z,31.30
2022-11-15T07:43:42.767Z,31.20
2022-11-15T07:46:10.979Z,31.20
2022-11-15T07:48:45.327Z,31.20
2022-11-15T07:51:16.714Z,31.10
2022-11-15T07:53:45.455Z,31.10
2022-11-15T07:56:14.097Z,31.10
2022-11-15T07:58:41.761Z,31.10
2022-11-15T08:01:10.530Z,31.10
2022-11-15T08:03:39.041Z,31.10
2022-11-15T08:06:07.684Z,31.00
2022-11-15T08:08:36.226Z,31.00
2022-11-15T08:11:03.822Z,31.00
2022-11-15T08:13:32.095Z,30.90
2022-11-15T08:16:00.858Z,30.90
2022-11-15T08:18:28.460Z,30.90
2022-11-15T08:20:59.931Z,30.90
2022-11-15T08:23:29.444Z,30.90
2022-11-15T08:26:04.987Z,30.90
2022-11-15T08:28:33.093Z,30.90
2022-11-15T08:31:00.623Z,30.90
2022-11-15T08:33:29.243Z,30.90
2022-11-15T08:36:01.076Z,30.80
2022-11-15T08:38:30.682Z,30.90
2022-11-15T08:41:04.264Z,30.90
2022-11-15T08:43:32.872Z,30.90
2022-11-15T08:46:00.992Z,30.90
2022-11-15T08:48:28.631Z,30.80
2022-11-15T08:53:31.875Z,30.90
2022-11-15T08:56:00.053Z,30.90
2022-11-15T08:58:29.368Z,31.00
2022-11-15T09:00:59.685Z,31.00
2022-11-15T09:03:32.440Z,31.00
2022-11-15T09:06:01.269Z,31.00
2022-11-15T09:08:52.289Z,31.00
2022-11-15T09:11:21.633Z,31.10
2022-11-15T09:13:49.259Z,31.10
2022-11-15T09:16:17.162Z,31.20
2022-11-15T09:18:44.778Z,31.20
2022-11-15T09:23:42.371Z,31.20
2022-11-15T09:26:10.097Z,31.20
2022-11-15T09:28:39.318Z,31.20
2022-11-15T09:31:07.515Z,31.20
2022-11-15T09:33:35.303Z,31.20
2022-11-15T09:36:04.420Z,31.20
2022-11-15T09:38:32.353Z,31.30
2022-11-15T09:41:20.304Z,31.20
2022-11-15T09:44:06.003Z,31.20
2022-11-15T09:46:52.842Z,31.20
2022-11-15T09:49:20.598Z,31.20
2022-11-15T09:51:51.128Z,31.20
2022-11-15T09:54:52.227Z,31.20
2022-11-15T09:57:31.759Z,31.10
2022-11-15T10:00:38.646Z,31.10
2022-11-15T10:03:01.521Z,31.10
2022-11-15T10:05:30.898Z,31.00
2022-11-15T10:08:01.616Z,31.00
2022-11-15T10:10:33.915Z,31.00
2022-11-15T10:13:02.487Z,30.90
2022-11-15T10:15:29.983Z,30.90
2022-11-15T10:18:09.038Z,30.80
2022-11-15T10:20:56.670Z,30.80
2022-11-15T10:23:24.974Z,30.70
2022-11-15T10:25:54.887Z,30.70
2022-11-15T10:28:32.512Z,30.60
2022-11-15T10:31:03.117Z,30.50
2022-11-15T10:33:37.477Z,30.50
2022-11-15T10:36:11.378Z,30.40
2022-11-15T10:38:50.791Z,30.40
2022-11-15T10:41:20.900Z,30.40
2022-11-15T10:44:08.628Z,30.30
2022-11-15T10:46:49.100Z,30.30
2022-11-15T10:49:20.554Z,30.20
2022-11-15T10:51:53.244Z,30.20
2022-11-15T10:54:40.778Z,30.10
2022-11-15T10:57:28.406Z,30.10
2022-11-15T11:00:11.304Z,30.00
2022-11-15T11:02:40.524Z,29.90
2022-11-15T11:05:26.665Z,29.90
2022-11-15T11:08:02.543Z,29.80
2022-11-15T11:10:51.011Z,29.80
2022-11-15T11:13:25.819Z,29.70
2022-11-15T11:15:59.365Z,29.70
2022-11-15T11:18:30.220Z,29.70
2022-11-15T11:21:02.782Z,29.70
2022-11-15T11:23:30.548Z,29.60
2022-11-15T11:26:09.863Z,29.60
2022-11-15T11:28:42.658Z,29.60
2022-11-15T11:31:10.171Z,29.60
2022-11-15T11:33:43.621Z,29.50
2022-11-15T11:36:14.222Z,29.50
2022-11-15T11:39:00.347Z,29.50
2022-11-15T11:41:30.975Z,29.50
2022-11-15T11:44:16.920Z,29.50
2022-11-15T11:46:54.434Z,29.40
2022-11-15T11:49:28.254Z,29.40
2022-11-15T11:52:10.262Z,29.40
2022-11-15T11:54:50.752Z,29.40
2022-11-15T11:57:44.765Z,29.30
2022-11-15T12:00:22.834Z,29.30
2022-11-15T12:02:53.525Z,29.30
2022-11-15T12:05:33.470Z,29.30
2022-11-15T12:08:21.105Z,29.20
2022-11-15T12:10:50.617Z,29.20
2022-11-15T12:13:19.669Z,29.20
2022-11-15T12:15:49.516Z,29.10
2022-11-15T12:18:18.698Z,29.10
2022-11-15T12:21:02.474Z,29.00
2022-11-15T12:23:36.644Z,29.00
2022-11-15T12:26:14.067Z,28.90
2022-11-15T12:29:07.585Z,29.00
2022-11-15T12:31:36.177Z,28.90
2022-11-15T12:34:24.543Z,28.90
2022-11-15T12:36:52.846Z,29.00
2022-11-15T12:39:22.011Z,29.00
2022-11-15T12:41:58.629Z,29.00
2022-11-15T12:44:32.082Z,29.00
2022-11-15T12:46:59.645Z,29.00
2022-11-15T12:49:27.089Z,28.90
2022-11-15T12:52:00.553Z,28.90
2022-11-15T12:54:30.506Z,28.90
2022-11-15T12:57:20.889Z,28.90
2022-11-15T12:59:59.947Z,28.90
2022-11-15T13:02:37.774Z,28.90
2022-11-15T13:05:18.385Z,28.90
2022-11-15T13:07:45.891Z,28.90
2022-11-15T13:10:13.487Z,28.90
2022-11-15T13:12:43.012Z,28.90
2022-11-15T13:15:13.549Z,28.90
2022-11-15T13:17:42.969Z,28.90
2022-11-15T13:20:15.481Z,28.90
2022-11-15T13:23:05.944Z,28.80
2022-11-15T13:25:49.075Z,28.80
2022-11-15T13:28:16.568Z,28.80
2022-11-15T13:30:50.227Z,28.70
2022-11-15T13:33:19.477Z,28.70
2022-11-15T13:35:48.397Z,28.70
2022-11-15T13:38:28.273Z,28.70
2022-11-15T13:40:56.347Z,28.70
2022-11-15T13:43:29.529Z,28.70
2022-11-15T13:46:09.246Z,28.60
2022-11-15T13:48:36.787Z,28.60
2022-11-15T13:51:12.375Z,28.60
2022-11-15T13:53:43.033Z,28.60
2022-11-15T13:56:11.013Z,28.50
2022-11-15T13:58:40.089Z,28.50
2022-11-15T14:01:08.485Z,28.50
2022-11-15T14:03:42.463Z,28.50
2022-11-15T14:06:18.499Z,28.50
2022-11-15T14:09:01.292Z,28.40
2022-11-15T14:11:28.958Z,28.40
2022-11-15T14:14:16.694Z,28.40
2022-11-15T14:16:45.786Z,28.40
2022-11-15T14:19:14.975Z,28.30
2022-11-15T14:22:01.185Z,28.30
2022-11-15T14:24:32.435Z,28.30
2022-11-15T14:27:16.906Z,28.20
2022-11-15T14:29:44.403Z,28.20
2022-11-15T14:32:25.413Z,28.20
2022-11-15T14:35:02.884Z,28.20
2022-11-15T14:37:36.139Z,28.20
2022-11-15T14:40:07.622Z,28.20
2022-11-15T14:42:35.935Z,28.20
2022-11-15T14:45:03.584Z,28.20
2022-11-15T14:47:31.109Z,28.20
2022-11-15T14:49:59.140Z,28.20
2022-11-15T14:52:32.242Z,28.20
2022-11-15T14:55:01.012Z,28.30
2022-11-15T14:57:28.529Z,28.20
2022-11-15T14:59:58.709Z,28.20
2022-11-15T15:02:27.213Z,28.20
2022-11-15T15:04:54.870Z,28.20
2022-11-15T15:07:22.745Z,28.30
2022-11-15T15:09:50.354Z,28.20
2022-11-15T15:12:18.192Z,28.20
2022-11-15T15:14:47.064Z,28.20
2022-11-15T15:17:14.692Z,28.20
2022-11-15T15:19:42.657Z,28.20
2022-11-15T15:22:19.875Z,28.20
2022-11-15T15:24:47.734Z,28.20
2022-11-15T15:27:15.429Z,28.20
2022-11-15T15:29:43.714Z,28.20
2022-11-15T15:32:12.158Z,28.20
2022-11-15T15:34:40.450Z,28.20
2022-11-15T15:37:17.253Z,28.10
2022-11-15T15:39:44.796Z,28.10
2022-11-15T15:42:12.446Z,28.00
2022-11-15T15:44:40.247Z,28.00
2022-11-15T15:47:33.791Z,28.00
2022-11-15T15:50:01.394Z,27.90
2022-11-15T15:52:28.982Z,27.90
2022-11-15T15:54:56.576Z,27.90
2022-11-15T15:57:24.115Z,27.90
2022-11-15T15:59:51.614Z,27.80
2022-11-15T16:02:19.135Z,27.90
2022-11-15T16:04:46.647Z,27.90
2022-11-15T16:07:18.051Z,27.80
2022-11-15T16:10:03.769Z,27.90
2022-11-15T16:12:32.222Z,27.90
2022-11-15T16:14:59.861Z,27.90
2022-11-15T16:17:34.101Z,27.90
2022-11-15T16:20:03.178Z,27.90
2022-11-15T16:22:30.679Z,27.90
2022-11-15T16:24:58.394Z,27.90
2022-11-15T16:27:25.942Z,27.90
2022-11-15T16:29:53.387Z,27.90
2022-11-15T16:32:20.826Z,27.80
2022-11-15T16:34:49.391Z,27.80
2022-11-15T16:37:25.974Z,27.80
2022-11-15T16:39:57.152Z,27.80
2022-11-15T16:42:27.300Z,27.80
2022-11-15T16:44:54.766Z,27.80
2022-11-15T16:47:23.079Z,27.80
2022-11-15T16:49:50.533Z,27.80
2022-11-15T16:52:21.400Z,27.70
2022-11-15T16:54:49.124Z,27.70
2022-11-15T16:57:16.818Z,27.70
2022-11-15T16:59:44.302Z,27.70
2022-11-15T17:02:15.361Z,27.70
2022-11-15T17:04:42.776Z,27.70
2022-11-15T17:07:10.489Z,27.70
2022-11-15T17:09:37.939Z,27.70
2022-11-15T17:12:06.430Z,27.70
2022-11-15T17:14:33.933Z,27.60
2022-11-15T17:17:01.430Z,27.70
2022-11-15T17:19:29.068Z,27.70
2022-11-15T17:21:56.514Z,27.70
2022-11-15T17:24:24.819Z,27.60
2022-11-15T17:26:52.251Z,27.60
2022-11-15T17:29:19.728Z,27.60
2022-11-15T17:31:47.167Z,27.60
2022-11-15T17:34:14.662Z,27.50
2022-11-15T17:36:42.163Z,27.50
2022-11-15T17:39:09.593Z,27.50
2022-11-15T17:41:37.074Z,27.50
2022-11-15T17:44:04.845Z,27.50
2022-11-15T17:46:34.524Z,27.50
2022-11-15T17:49:02.010Z,27.50
2022-11-15T17:51:29.549Z,27.50
2022-11-15T17:53:57.078Z,27.50
2022-11-15T17:56:25.408Z,27.50
2022-11-15T17:58:54.151Z,27.40
2022-11-15T18:01:23.082Z,27.40
2022-11-15T18:03:51.056Z,27.40
2022-11-15T18:06:19.160Z,27.40
2022-11-15T18:08:47.481Z,27.40
2022-11-15T18:11:17.999Z,27.40
2022-11-15T18:13:51.907Z,27.40
2022-11-15T18:16:21.078Z,27.30
2022-11-15T18:18:49.132Z,27.30
2022-11-15T18:21:20.262Z,27.30
2022-11-15T18:23:48.612Z,27.30
2022-11-15T18:26:17.879Z,27.30
2022-11-15T18:28:46.627Z,27.20
2022-11-15T18:31:14.226Z,27.20
2022-11-15T18:33:43.200Z,27.20
2022-11-15T18:36:12.765Z,27.20
2022-11-15T18:38:41.092Z,27.20
2022-11-15T18:41:11.392Z,27.20
2022-11-15T18:43:39.278Z,27.20
2022-11-15T18:46:09.239Z,27.10
2022-11-15T18:48:37.651Z,27.10
2022-11-15T18:51:05.862Z,27.10
2022-11-15T18:53:34.353Z,27.20
2022-11-15T18:56:06.204Z,27.10
2022-11-15T18:58:34.758Z,27.10
2022-11-15T19:01:06.288Z,27.10
2022-11-15T19:03:35.377Z,27.10
2022-11-15T19:06:08.157Z,27.00
2022-11-15T19:08:36.339Z,27.10
2022-11-15T19:11:13.066Z,27.00
2022-11-15T19:13:41.096Z,27.00
2022-11-15T19:16:10.142Z,27.00
2022-11-15T19:18:37.743Z,27.00
2022-11-15T19:21:06.653Z,27.00
2022-11-15T19:23:37.816Z,27.00
2022-11-15T19:26:06.035Z,26.90
2022-11-15T19:28:33.891Z,26.90
2022-11-15T19:31:08.756Z,26.90
2022-11-15T19:33:36.308Z,26.90
2022-11-15T19:36:05.061Z,26.90
2022-11-15T19:38:33.248Z,26.90
2022-11-15T19:41:05.611Z,26.90
2022-11-15T19:43:33.742Z,26.90
2022-11-15T19:46:02.708Z,26.80
2022-11-15T19:48:31.758Z,26.90
2022-11-15T19:51:03.241Z,26.80
2022-11-15T19:53:35.241Z,26.80
2022-11-15T19:56:11.792Z,26.80
2022-11-15T19:58:39.555Z,26.80
2022-11-15T20:01:08.332Z,26.80
2022-11-15T20:03:36.638Z,26.80
2022-11-15T20:06:08.558Z,26.80
2022-11-15T20:08:36.653Z,26.70
2022-11-15T20:11:05.027Z,26.70
2022-11-15T20:13:32.677Z,26.70
2022-11-15T20:16:00.556Z,26.70
2022-11-15T20:18:28.700Z,26.70
2022-11-15T20:20:58.182Z,26.60
2022-11-15T20:23:26.214Z,26.70
2022-11-15T20:25:54.135Z,26.60
2022-11-15T20:28:23.124Z,26.60
2022-11-15T20:30:52.220Z,26.50
2022-11-15T20:33:21.294Z,26.60
2022-11-15T20:35:49.343Z,26.50
2022-11-15T20:38:17.426Z,26.50
2022-11-15T20:40:48.605Z,26.50
2022-11-15T20:43:17.140Z,26.50
2022-11-15T20:45:49.127Z,26.50
2022-11-15T20:48:17.401Z,26.40
2022-11-15T20:50:45.982Z,26.40
2022-11-15T20:53:15.378Z,26.40
2022-11-15T20:55:48.263Z,26.40
2022-11-15T20:58:16.527Z,26.40
2022-11-15T21:00:45.035Z,26.40
2022-11-15T21:03:13.393Z,26.30
2022-11-15T21:05:42.871Z,26.20
2022-11-15T21:08:11.242Z,26.20
2022-11-15T21:10:57.704Z,26.20
2022-11-15T21:13:25.444Z,26.20
2022-11-15T21:15:55.825Z,26.20
2022-11-15T21:18:23.412Z,26.20
2022-11-15T21:20:50.942Z,26.20
2022-11-15T21:23:18.442Z,26.20
2022-11-15T21:25:53.590Z,26.20
2022-11-15T21:28:21.129Z,26.20
2022-11-15T21:30:59.476Z,26.10
2022-11-15T21:33:30.484Z,26.10
2022-11-15T21:35:58.430Z,26.10
2022-11-15T21:38:26.352Z,26.10
2022-11-15T21:40:54.311Z,26.00
2022-11-15T21:43:21.862Z,26.00
2022-11-15T21:46:00.197Z,26.00
2022-11-15T21:48:28.680Z,25.90
2022-11-15T21:51:03.814Z,25.90
2022-11-15T21:53:31.976Z,25.80
2022-11-15T21:56:00.190Z,25.80
2022-11-15T21:58:28.223Z,25.80
2022-11-15T22:01:14.650Z,25.80
2022-11-15T22:03:43.350Z,25.80
2022-11-15T22:06:17.214Z,25.80
2022-11-15T22:08:47.034Z,25.80
2022-11-15T22:11:15.196Z,25.80
2022-11-15T22:13:42.889Z,25.80
2022-11-15T22:16:10.675Z,25.80
2022-11-15T22:18:38.852Z,25.80
2022-11-15T22:21:07.890Z,25.80
2022-11-15T22:23:35.830Z,25.80
2022-11-15T22:26:03.371Z,25.80
2022-11-15T22:28:31.071Z,25.80
2022-11-15T22:30:58.901Z,25.80
2022-11-15T22:33:28.594Z,25.80
2022-11-15T22:35:56.493Z,25.80
2022-11-15T22:38:24.459Z,25.80
2022-11-15T22:40:52.184Z,25.80
2022-11-15T22:43:20.930Z,25.80
2022-11-15T22:45:52.806Z,25.80
2022-11-15T22:48:24.721Z,25.80
2022-11-15T22:50:52.558Z,25.80
2022-11-15T22:53:20.372Z,25.80
2022-11-15T22:55:52.068Z,25.80
2022-11-15T22:58:20.511Z,25.80
2022-11-15T23:00:51.375Z,25.80
2022-11-15T23:03:19.891Z,25.80
2022-11-15T23:05:47.953Z,25.80
2022-11-15T23:08:16.174Z,25.80
2022-11-15T23:11:02.331Z,25.80
2022-11-15T23:13:30.627Z,25.70
2022-11-15T23:16:20.857Z,25.70
2022-11-15T23:18:48.992Z,25.60
2022-11-15T23:21:46.671Z,25.70
2022-11-15T23:24:14.878Z,25.70
2022-11-15T23:26:42.794Z,25.60
2022-11-15T23:29:11.864Z,25.60
2022-11-15T23:32:02.019Z,25.60
2022-11-15T23:34:33.179Z,25.60
2022-11-15T23:37:00.911Z,25.60
2022-11-15T23:39:28.478Z,25.60
2022-11-15T23:41:56.145Z,25.60
2022-11-15T23:44:24.107Z,25.60
2022-11-15T23:46:52.087Z,25.60
2022-11-15T23:49:19.808Z,25.60
2022-11-15T23:51:47.979Z,25.60
2022-11-15T23:54:15.707Z,25.60
2022-11-15T23:56:44.142Z,25.60
2022-11-15T23:59:12.491Z,25.60
